createdAt,value
2023-03-13T00:00:01.450Z,93.35
2023-03-13T00:01:32.261Z,93.30
2023-03-13T00:02:01.963Z,93.09
2023-03-13T00:03:04.299Z,92.94
2023-03-13T00:04:00.315Z,93.25
2023-03-13T00:05:00.266Z,93.50
2023-03-13T00:06:00.123Z,93.35
2023-03-13T00:07:02.958Z,93.15
2023-03-13T00:08:00.522Z,92.94
2023-03-13T00:09:01.720Z,92.63
2023-03-13T00:10:01.880Z,92.84
2023-03-13T00:11:02.035Z,92.94
2023-03-13T00:12:00.409Z,92.84
2023-03-13T00:13:02.989Z,92.74
2023-03-13T00:14:00.617Z,92.84
2023-03-13T00:15:04.514Z,92.74
2023-03-13T00:16:01.757Z,92.38
2023-03-13T00:17:01.500Z,92.29
2023-03-13T00:18:01.541Z,91.36
2023-03-13T00:19:04.142Z,91.77
2023-03-13T00:20:05.632Z,91.66
2023-03-13T00:21:01.875Z,91.77
2023-03-13T00:22:01.046Z,91.87
2023-03-13T00:22:59.675Z,91.66
2023-03-13T00:23:59.641Z,91.56
2023-03-13T00:24:59.664Z,91.87
2023-03-13T00:25:59.730Z,91.87
2023-03-13T00:26:59.864Z,92.08
2023-03-13T00:27:59.616Z,91.77
2023-03-13T00:28:59.624Z,91.66
2023-03-13T00:29:59.585Z,91.66
2023-03-13T00:30:59.731Z,91.77
2023-03-13T00:31:59.681Z,91.66
2023-03-13T00:32:59.616Z,91.56
2023-03-13T00:33:59.516Z,91.56
2023-03-13T00:34:59.511Z,91.97
2023-03-13T00:35:59.559Z,91.77
2023-03-13T00:36:59.478Z,91.66
2023-03-13T00:37:59.467Z,91.77
2023-03-13T00:38:59.547Z,91.11
2023-03-13T00:39:59.547Z,91.21
2023-03-13T00:40:59.766Z,91.31
2023-03-13T00:41:59.612Z,90.49
2023-03-13T00:43:01.274Z,90.49
2023-03-13T00:43:59.388Z,90.86
2023-03-13T00:44:59.552Z,90.59
2023-03-13T00:45:59.370Z,91.00
2023-03-13T00:46:59.346Z,90.45
2023-03-13T00:47:59.352Z,90.14
2023-03-13T00:48:59.317Z,90.14
2023-03-13T00:49:59.371Z,90.03
2023-03-13T00:50:59.666Z,89.94
2023-03-13T00:51:59.400Z,90.14
2023-03-13T00:52:59.310Z,90.14
2023-03-13T00:53:59.276Z,90.03
2023-03-13T00:54:59.330Z,90.08
2023-03-13T00:56:01.108Z,90.14
2023-03-13T00:57:02.722Z,90.34
2023-03-13T00:58:01.037Z,90.14
2023-03-13T00:58:59.381Z,90.03
2023-03-13T00:59:59.200Z,90.14
2023-03-13T01:00:59.188Z,90.24
2023-03-13T01:01:59.179Z,90.03
2023-03-13T01:02:59.376Z,90.14
2023-03-13T01:03:59.319Z,90.03
2023-03-13T01:05:00.140Z,90.09
2023-03-13T01:06:00.163Z,89.83
2023-03-13T01:06:59.339Z,89.28
2023-03-13T01:08:00.926Z,88.96
2023-03-13T01:08:59.122Z,89.07
2023-03-13T01:09:59.930Z,90.24
2023-03-13T01:10:59.137Z,90.20
2023-03-13T01:11:59.128Z,90.03
2023-03-13T01:12:59.084Z,90.24
2023-03-13T01:13:59.081Z,90.24
2023-03-13T01:15:00.127Z,90.34
2023-03-13T01:15:59.148Z,89.94
2023-03-13T01:16:59.109Z,90.45
2023-03-13T01:17:59.036Z,90.03
2023-03-13T01:18:59.021Z,90.03
2023-03-13T01:19:59.176Z,90.14
2023-03-13T01:21:00.267Z,90.24
2023-03-13T01:22:01.327Z,90.14
2023-03-13T01:23:01.469Z,90.03
2023-03-13T01:24:01.359Z,90.03
2023-03-13T01:24:59.071Z,90.03
2023-03-13T01:25:58.984Z,90.14
2023-03-13T01:26:58.984Z,90.34
2023-03-13T01:27:58.982Z,90.34
2023-03-13T01:28:58.917Z,90.24
2023-03-13T01:29:59.132Z,90.66
2023-03-13T01:30:58.889Z,90.45
2023-03-13T01:31:58.867Z,90.14
2023-03-13T01:32:58.886Z,90.45
2023-03-13T01:33:59.575Z,90.24
2023-03-13T01:34:58.914Z,90.14
2023-03-13T01:36:00.637Z,90.00
2023-03-13T01:37:02.982Z,89.83
2023-03-13T01:38:00.703Z,89.89
2023-03-13T01:38:59.161Z,90.20
2023-03-13T01:39:58.727Z,90.00
2023-03-13T01:41:00.272Z,90.00
2023-03-13T01:41:59.701Z,90.09
2023-03-13T01:42:59.838Z,90.20
2023-03-13T01:44:00.392Z,90.30
2023-03-13T01:45:03.241Z,90.00
2023-03-13T01:45:58.961Z,90.45
2023-03-13T01:46:59.168Z,90.41
2023-03-13T01:47:58.659Z,90.72
2023-03-13T01:48:58.675Z,90.51
2023-03-13T01:49:58.634Z,90.30
2023-03-13T01:50:58.639Z,90.81
2023-03-13T01:51:58.621Z,90.81
2023-03-13T01:52:58.677Z,90.41
2023-03-13T01:53:58.887Z,90.30
2023-03-13T01:54:58.716Z,90.00
2023-03-13T01:55:59.464Z,90.09
2023-03-13T01:57:01.920Z,89.95
2023-03-13T01:57:59.240Z,89.85
2023-03-13T01:59:02.475Z,90.16
2023-03-13T01:59:59.085Z,90.26
2023-03-13T02:00:59.901Z,90.16
2023-03-13T02:01:59.716Z,90.20
2023-03-13T02:02:58.703Z,89.85
2023-03-13T02:03:58.535Z,90.06
2023-03-13T02:04:58.541Z,89.85
2023-03-13T02:05:58.467Z,90.09
2023-03-13T02:06:58.469Z,90.26
2023-03-13T02:07:58.521Z,90.00
2023-03-13T02:08:58.776Z,90.16
2023-03-13T02:10:01.874Z,89.95
2023-03-13T02:10:58.421Z,90.26
2023-03-13T02:11:58.666Z,89.85
2023-03-13T02:12:58.378Z,89.95
2023-03-13T02:14:01.573Z,90.06
2023-03-13T02:14:58.862Z,90.06
2023-03-13T02:15:58.474Z,89.95
2023-03-13T02:16:58.930Z,89.75
2023-03-13T02:17:59.656Z,89.95
2023-03-13T02:19:01.221Z,89.95
2023-03-13T02:20:01.697Z,89.95
2023-03-13T02:20:58.888Z,90.06
2023-03-13T02:21:58.793Z,90.16
2023-03-13T02:23:00.409Z,90.06
2023-03-13T02:23:59.159Z,90.16
2023-03-13T02:25:00.701Z,90.06
2023-03-13T02:26:02.475Z,89.85
2023-03-13T02:26:59.069Z,90.16
2023-03-13T02:27:58.830Z,90.16
2023-03-13T02:29:01.464Z,90.06
2023-03-13T02:29:59.092Z,90.26
2023-03-13T02:31:02.250Z,90.26
2023-03-13T02:31:58.711Z,90.16
2023-03-13T02:33:00.240Z,90.06
2023-03-13T02:34:03.412Z,89.85
2023-03-13T02:35:01.473Z,90.26
2023-03-13T02:35:58.290Z,90.06
2023-03-13T02:36:58.470Z,89.95
2023-03-13T02:38:00.485Z,89.85
2023-03-13T02:39:01.325Z,90.26
2023-03-13T02:39:58.804Z,90.16
2023-03-13T02:41:00.912Z,90.26
2023-03-13T02:42:02.585Z,90.06
2023-03-13T02:43:01.132Z,90.16
2023-03-13T02:44:02.199Z,89.95
2023-03-13T02:44:59.580Z,90.57
2023-03-13T02:45:58.128Z,90.06
2023-03-13T02:46:58.759Z,90.06
2023-03-13T02:47:59.504Z,90.16
2023-03-13T02:48:59.415Z,90.01
2023-03-13T02:49:59.395Z,90.16
2023-03-13T02:51:01.245Z,90.06
2023-03-13T02:51:58.668Z,90.06
2023-03-13T02:53:01.674Z,90.12
2023-03-13T02:53:59.955Z,89.91
2023-03-13T02:54:58.760Z,89.95
2023-03-13T02:55:58.084Z,90.12
2023-03-13T02:56:58.115Z,90.01
2023-03-13T02:57:57.917Z,89.95
2023-03-13T02:58:57.918Z,90.01
2023-03-13T02:59:57.927Z,89.81
2023-03-13T03:00:58.021Z,90.12
2023-03-13T03:01:58.298Z,90.22
2023-03-13T03:02:59.613Z,90.22
2023-03-13T03:03:58.203Z,90.22
2023-03-13T03:05:02.109Z,90.01
2023-03-13T03:06:00.860Z,89.91
2023-03-13T03:06:58.121Z,89.81
2023-03-13T03:07:57.797Z,89.91
2023-03-13T03:08:57.821Z,90.01
2023-03-13T03:09:57.797Z,90.22
2023-03-13T03:10:57.799Z,89.91
2023-03-13T03:11:57.758Z,90.01
2023-03-13T03:12:57.732Z,90.01
2023-03-13T03:13:57.926Z,90.12
2023-03-13T03:14:58.008Z,89.91
2023-03-13T03:16:00.988Z,89.91
2023-03-13T03:17:00.402Z,90.01
2023-03-13T03:17:58.025Z,90.26
2023-03-13T03:18:57.688Z,90.06
2023-03-13T03:19:57.733Z,90.12
2023-03-13T03:20:57.644Z,90.36
2023-03-13T03:21:57.635Z,90.53
2023-03-13T03:22:58.419Z,90.42
2023-03-13T03:23:57.608Z,90.22
2023-03-13T03:24:57.746Z,90.01
2023-03-13T03:25:57.587Z,90.32
2023-03-13T03:26:57.592Z,90.26
2023-03-13T03:27:57.568Z,90.12
2023-03-13T03:28:57.574Z,90.22
2023-03-13T03:29:57.599Z,89.91
2023-03-13T03:30:57.732Z,90.12
2023-03-13T03:31:57.562Z,89.76
2023-03-13T03:32:57.535Z,90.18
2023-03-13T03:33:57.475Z,90.01
2023-03-13T03:34:57.618Z,90.18
2023-03-13T03:35:57.484Z,89.97
2023-03-13T03:36:57.467Z,89.91
2023-03-13T03:37:58.424Z,89.76
2023-03-13T03:38:57.426Z,89.97
2023-03-13T03:39:57.426Z,89.87
2023-03-13T03:40:57.407Z,90.08
2023-03-13T03:41:57.411Z,90.08
2023-03-13T03:42:57.446Z,89.97
2023-03-13T03:43:57.389Z,89.76
2023-03-13T03:44:57.339Z,89.97
2023-03-13T03:45:57.613Z,90.18
2023-03-13T03:46:57.798Z,90.18
2023-03-13T03:47:57.476Z,90.28
2023-03-13T03:48:57.270Z,90.28
2023-03-13T03:49:58.385Z,90.38
2023-03-13T03:50:57.317Z,90.48
2023-03-13T03:51:57.289Z,90.48
2023-03-13T03:52:58.045Z,90.69
2023-03-13T03:53:57.302Z,90.44
2023-03-13T03:54:58.013Z,90.59
2023-03-13T03:55:57.252Z,90.48
2023-03-13T03:56:57.423Z,90.75
2023-03-13T03:57:57.363Z,90.80
2023-03-13T03:58:57.226Z,90.34
2023-03-13T03:59:57.669Z,90.44
2023-03-13T04:01:00.052Z,90.44
2023-03-13T04:01:58.585Z,90.44
2023-03-13T04:02:58.814Z,90.65
2023-03-13T04:03:57.714Z,91.16
2023-03-13T04:04:58.747Z,90.85
2023-03-13T04:05:57.166Z,91.06
2023-03-13T04:06:57.144Z,91.37
2023-03-13T04:07:57.095Z,91.27
2023-03-13T04:08:57.158Z,91.27
2023-03-13T04:09:57.168Z,91.16
2023-03-13T04:10:57.129Z,92.08
2023-03-13T04:11:57.110Z,92.19
2023-03-13T04:12:57.041Z,92.50
2023-03-13T04:13:57.018Z,93.01
2023-03-13T04:14:57.056Z,93.21
2023-03-13T04:15:58.071Z,93.57
2023-03-13T04:16:57.082Z,93.87
2023-03-13T04:17:56.999Z,94.04
2023-03-13T04:18:56.950Z,94.34
2023-03-13T04:19:57.345Z,94.80
2023-03-13T04:20:57.914Z,94.49
2023-03-13T04:21:57.308Z,95.10
2023-03-13T04:22:57.056Z,95.31
2023-03-13T04:23:57.003Z,95.72
2023-03-13T04:24:56.921Z,96.85
2023-03-13T04:25:56.940Z,96.75
2023-03-13T04:26:56.843Z,96.34
2023-03-13T04:27:57.763Z,97.27
2023-03-13T04:28:57.296Z,97.16
2023-03-13T04:29:57.598Z,97.31
2023-03-13T04:30:56.976Z,97.62
2023-03-13T04:31:56.829Z,98.33
2023-03-13T04:32:57.131Z,98.65
2023-03-13T04:34:29.504Z,97.72
2023-03-13T04:35:01.108Z,98.03
2023-03-13T04:35:57.046Z,98.65
2023-03-13T04:36:56.855Z,98.75
2023-03-13T04:37:56.771Z,98.54
2023-03-13T04:38:56.712Z,98.90
2023-03-13T04:39:57.932Z,99.16
2023-03-13T04:40:56.822Z,99.26
2023-03-13T04:41:56.896Z,99.37
2023-03-13T04:42:56.708Z,99.57
2023-03-13T04:43:56.792Z,99.57
2023-03-13T04:44:56.694Z,99.77
2023-03-13T04:45:57.022Z,99.57
2023-03-13T04:46:56.691Z,99.57
2023-03-13T04:47:56.678Z,99.88
2023-03-13T04:48:56.800Z,99.99
2023-03-13T04:51:17.460Z,99.99
2023-03-13T04:51:19.126Z,99.99
2023-03-13T04:52:19.470Z,99.99
2023-03-13T04:53:18.971Z,99.99
2023-03-13T04:54:19.052Z,99.88
2023-03-13T04:55:18.964Z,99.99
2023-03-13T04:56:20.291Z,99.99
2023-03-13T04:57:18.953Z,99.99
2023-03-13T04:58:18.928Z,99.99
2023-03-13T04:59:18.930Z,99.99
2023-03-13T05:00:18.941Z,99.88
2023-03-13T05:01:18.960Z,99.99
2023-03-13T05:02:19.139Z,99.88
2023-03-13T05:03:19.133Z,99.47
2023-03-13T05:04:19.021Z,99.99
2023-03-13T05:05:19.055Z,99.99
2023-03-13T05:06:19.092Z,99.99
2023-03-13T05:07:18.954Z,99.99
2023-03-13T05:08:18.895Z,99.99
2023-03-13T05:09:18.876Z,99.99
2023-03-13T05:10:19.041Z,99.99
2023-03-13T05:11:18.817Z,99.99
2023-03-13T05:12:18.857Z,99.99
2023-03-13T05:13:19.176Z,99.99
2023-03-13T05:14:18.775Z,99.99
2023-03-13T05:15:18.825Z,99.99
2023-03-13T05:16:19.075Z,99.99
2023-03-13T05:17:18.760Z,99.99
2023-03-13T05:18:19.715Z,99.99
2023-03-13T05:19:19.262Z,99.99
2023-03-13T05:20:18.818Z,99.99
2023-03-13T05:21:18.682Z,99.99
2023-03-13T05:22:18.698Z,99.99
2023-03-13T05:23:18.673Z,99.99
2023-03-13T05:24:18.710Z,99.99
2023-03-13T05:25:18.873Z,99.99
2023-03-13T05:26:18.655Z,99.99
2023-03-13T05:27:18.728Z,99.99
2023-03-13T05:28:19.805Z,99.99
2023-03-13T05:29:18.653Z,99.99
2023-03-13T05:30:18.621Z,99.99
2023-03-13T05:31:18.699Z,99.99
2023-03-13T05:32:18.642Z,99.99
2023-03-13T05:33:19.130Z,99.99
2023-03-13T05:34:19.590Z,99.99
2023-03-13T05:35:18.817Z,99.63
2023-03-13T05:36:18.582Z,99.63
2023-03-13T05:37:18.704Z,99.48
2023-03-13T05:38:18.497Z,99.48
2023-03-13T05:39:18.529Z,99.79
2023-03-13T05:40:19.508Z,99.58
2023-03-13T05:41:18.522Z,99.58
2023-03-13T05:42:18.506Z,99.48
2023-03-13T05:43:18.487Z,99.38
2023-03-13T05:44:18.468Z,99.48
2023-03-13T05:45:18.725Z,99.38
2023-03-13T05:46:19.039Z,99.27
2023-03-13T05:47:20.078Z,99.48
2023-03-13T05:48:18.440Z,99.58
2023-03-13T05:49:18.661Z,99.27
2023-03-13T05:50:18.947Z,99.17
2023-03-13T05:51:18.390Z,99.17
2023-03-13T05:52:18.406Z,98.76
2023-03-13T05:53:18.430Z,98.92
2023-03-13T05:54:18.440Z,98.96
2023-03-13T05:55:18.984Z,98.86
2023-03-13T05:56:18.316Z,98.96
2023-03-13T05:57:18.427Z,98.71
2023-03-13T05:58:18.459Z,98.96
2023-03-13T05:59:18.316Z,98.71
2023-03-13T06:00:18.359Z,99.02
2023-03-13T06:01:18.282Z,98.71
2023-03-13T06:02:18.372Z,98.82
2023-03-13T06:03:18.430Z,98.82
2023-03-13T06:04:18.282Z,98.92
2023-03-13T06:05:18.502Z,98.82
2023-03-13T06:06:18.329Z,99.12
2023-03-13T06:07:18.287Z,99.18
2023-03-13T06:08:19.349Z,99.28
2023-03-13T06:09:18.192Z,99.33
2023-03-13T06:10:18.182Z,99.90
2023-03-13T06:11:18.094Z,99.74
2023-03-13T06:12:18.176Z,99.99
2023-03-13T06:13:20.295Z,99.99
2023-03-13T06:14:19.173Z,99.99
2023-03-13T06:15:18.189Z,99.99
2023-03-13T06:16:18.133Z,99.99
2023-03-13T06:17:18.094Z,99.99
2023-03-13T06:18:18.143Z,99.99
2023-03-13T06:19:18.070Z,99.99
2023-03-13T06:20:18.072Z,99.99
2023-03-13T06:21:18.090Z,99.99
2023-03-13T06:22:18.090Z,99.99
2023-03-13T06:23:18.396Z,99.99
2023-03-13T06:24:18.243Z,99.99
2023-03-13T06:25:17.930Z,99.99
2023-03-13T06:26:18.034Z,99.99
2023-03-13T06:27:18.177Z,99.99
2023-03-13T06:28:18.738Z,99.99
2023-03-13T06:29:17.951Z,99.99
2023-03-13T06:30:17.960Z,99.99
2023-03-13T06:31:17.922Z,99.99
2023-03-13T06:32:18.090Z,99.99
2023-03-13T06:33:17.910Z,99.99
2023-03-13T06:34:17.894Z,99.99
2023-03-13T06:35:18.006Z,99.99
2023-03-13T06:36:17.981Z,99.99
2023-03-13T06:37:17.910Z,99.99
2023-03-13T06:38:17.838Z,99.99
2023-03-13T06:39:17.829Z,99.99
2023-03-13T06:40:17.812Z,99.99
2023-03-13T06:41:17.956Z,99.99
2023-03-13T06:42:17.966Z,99.99
2023-03-13T06:43:17.800Z,99.99
2023-03-13T06:44:17.855Z,99.99
2023-03-13T06:45:17.759Z,99.99
2023-03-13T06:46:17.880Z,99.99
2023-03-13T06:47:17.837Z,99.99
2023-03-13T06:48:17.759Z,99.99
2023-03-13T06:49:17.702Z,99.99
2023-03-13T06:50:17.735Z,99.99
2023-03-13T06:51:17.691Z,99.99
2023-03-13T06:52:19.327Z,99.99
2023-03-13T06:53:17.745Z,99.99
2023-03-13T06:54:17.681Z,99.99
2023-03-13T06:55:17.654Z,99.99
2023-03-13T06:56:18.585Z,99.99
2023-03-13T06:57:17.650Z,99.99
2023-03-13T06:58:31.777Z,99.99
2023-03-13T06:59:19.665Z,99.99
2023-03-13T07:00:17.620Z,99.99
2023-03-13T07:01:17.638Z,99.99
2023-03-13T07:02:17.577Z,99.99
2023-03-13T07:03:17.567Z,99.99
2023-03-13T07:04:17.670Z,99.99
2023-03-13T07:05:17.542Z,99.99
2023-03-13T07:06:17.625Z,99.99
2023-03-13T07:07:30.982Z,99.99
2023-03-13T07:08:19.530Z,99.99
2023-03-13T07:09:18.485Z,99.99
2023-03-13T07:10:17.490Z,99.99
2023-03-13T07:11:17.486Z,99.99
2023-03-13T07:12:17.479Z,99.99
2023-03-13T07:13:17.425Z,99.99
2023-03-13T07:14:17.863Z,99.99
2023-03-13T07:15:18.507Z,99.99
2023-03-13T07:16:17.481Z,99.99
2023-03-13T07:17:17.524Z,99.99
2023-03-13T07:18:17.432Z,99.99
2023-03-13T07:19:17.358Z,99.99
2023-03-13T07:20:17.954Z,99.99
2023-03-13T07:21:18.424Z,99.99
2023-03-13T07:22:17.383Z,99.99
2023-03-13T07:23:17.349Z,99.99
2023-03-13T07:24:17.515Z,99.91
2023-03-13T07:25:17.396Z,99.99
2023-03-13T07:26:17.493Z,99.99
2023-03-13T07:27:17.367Z,99.99
2023-03-13T07:28:17.287Z,99.99
2023-03-13T07:29:17.240Z,99.99
2023-03-13T07:30:17.366Z,99.99
2023-03-13T07:31:17.576Z,99.99
2023-03-13T07:32:17.266Z,99.96
2023-03-13T07:33:17.219Z,99.99
2023-03-13T07:34:17.252Z,99.99
2023-03-13T07:35:17.178Z,99.96
2023-03-13T07:36:18.606Z,99.96
2023-03-13T07:37:17.180Z,99.99
2023-03-13T07:38:17.154Z,99.86
2023-03-13T07:39:17.213Z,99.99
2023-03-13T07:40:17.134Z,99.99
2023-03-13T07:41:17.163Z,99.99
2023-03-13T07:42:17.120Z,99.99
2023-03-13T07:43:17.144Z,99.99
2023-03-13T07:44:17.156Z,99.99
2023-03-13T07:45:17.138Z,99.99
2023-03-13T07:46:17.161Z,99.99
2023-03-13T07:47:17.190Z,99.99
2023-03-13T07:48:17.381Z,99.99
2023-03-13T07:49:17.060Z,99.99
2023-03-13T07:50:17.130Z,99.99
2023-03-13T07:51:17.024Z,99.99
2023-03-13T07:52:17.012Z,99.99
2023-03-13T07:53:17.033Z,99.99
2023-03-13T07:54:17.492Z,99.99
2023-03-13T07:55:17.032Z,99.99
2023-03-13T07:56:16.963Z,99.99
2023-03-13T07:57:16.975Z,99.99
2023-03-13T07:58:16.978Z,99.99
2023-03-13T07:59:16.963Z,99.99
2023-03-13T08:00:16.957Z,99.99
2023-03-13T08:01:16.920Z,99.99
2023-03-13T08:02:17.019Z,99.99
2023-03-13T08:03:16.980Z,99.99
2023-03-13T08:04:16.882Z,99.99
2023-03-13T08:05:16.863Z,99.99
2023-03-13T08:06:17.117Z,99.99
2023-03-13T08:07:16.890Z,99.99
2023-03-13T08:08:16.874Z,99.99
2023-03-13T08:09:16.834Z,99.99
2023-03-13T08:10:16.795Z,99.99
2023-03-13T08:11:16.812Z,99.99
2023-03-13T08:12:16.827Z,99.99
2023-03-13T08:13:16.784Z,99.99
2023-03-13T08:14:16.807Z,99.99
2023-03-13T08:15:16.741Z,99.99
2023-03-13T08:16:16.796Z,99.99
2023-03-13T08:17:16.812Z,99.99
2023-03-13T08:18:17.472Z,99.99
2023-03-13T08:19:16.753Z,99.98
2023-03-13T08:20:16.695Z,99.99
2023-03-13T08:21:16.757Z,99.99
2023-03-13T08:22:16.762Z,99.82
2023-03-13T08:23:16.643Z,99.99
2023-03-13T08:24:16.680Z,99.99
2023-03-13T08:25:16.657Z,99.99
2023-03-13T08:26:16.662Z,99.99
2023-03-13T08:27:16.621Z,99.87
2023-03-13T08:28:16.660Z,99.99
2023-03-13T08:29:16.629Z,99.77
2023-03-13T08:30:16.650Z,99.52
2023-03-13T08:31:16.783Z,99.62
2023-03-13T08:32:16.753Z,99.41
2023-03-13T08:33:16.546Z,99.11
2023-03-13T08:34:16.590Z,99.31
2023-03-13T08:35:16.556Z,99.21
2023-03-13T08:36:16.633Z,99.31
2023-03-13T08:37:16.634Z,99.11
2023-03-13T08:38:16.485Z,99.16
2023-03-13T08:39:16.510Z,99.11
2023-03-13T08:40:16.470Z,99.01
2023-03-13T08:41:16.457Z,99.06
2023-03-13T08:42:16.473Z,99.16
2023-03-13T08:43:16.712Z,98.65
2023-03-13T08:44:16.656Z,98.55
2023-03-13T08:45:16.532Z,99.06
2023-03-13T08:46:19.639Z,99.37
2023-03-13T08:47:17.448Z,99.11
2023-03-13T08:48:16.372Z,99.32
2023-03-13T08:49:16.439Z,99.99
2023-03-13T08:50:16.405Z,99.99
2023-03-13T08:51:16.330Z,99.99
2023-03-13T08:52:16.324Z,99.63
2023-03-13T08:53:16.388Z,99.88
2023-03-13T08:54:17.018Z,99.37
2023-03-13T08:55:16.398Z,99.11
2023-03-13T08:56:17.269Z,99.02
2023-03-13T08:57:16.293Z,98.40
2023-03-13T08:58:16.290Z,98.50
2023-03-13T08:59:16.281Z,98.61
2023-03-13T09:00:16.283Z,98.20
2023-03-13T09:01:16.427Z,97.64
2023-03-13T09:02:16.253Z,97.38
2023-03-13T09:03:16.205Z,97.95
2023-03-13T09:04:16.975Z,97.85
2023-03-13T09:05:16.177Z,98.05
2023-03-13T09:06:16.326Z,97.74
2023-03-13T09:07:16.281Z,96.83
2023-03-13T09:08:16.885Z,96.72
2023-03-13T09:09:16.305Z,96.51
2023-03-13T09:10:16.137Z,96.58
2023-03-13T09:11:16.159Z,96.47
2023-03-13T09:12:29.982Z,96.06
2023-03-13T09:13:18.114Z,95.92
2023-03-13T09:14:16.120Z,95.92
2023-03-13T09:15:16.082Z,95.81
2023-03-13T09:16:17.151Z,95.51
2023-03-13T09:17:16.050Z,95.06
2023-03-13T09:18:16.117Z,94.90
2023-03-13T09:19:16.051Z,94.45
2023-03-13T09:20:16.022Z,94.24
2023-03-13T09:21:16.012Z,94.20
2023-03-13T09:22:16.024Z,93.69
2023-03-13T09:23:16.003Z,93.69
2023-03-13T09:24:15.964Z,93.79
2023-03-13T09:25:16.006Z,93.48
2023-03-13T09:26:15.959Z,93.07
2023-03-13T09:27:15.970Z,93.33
2023-03-13T09:28:15.909Z,93.13
2023-03-13T09:29:16.270Z,92.72
2023-03-13T09:30:15.918Z,92.72
2023-03-13T09:31:15.973Z,92.48
2023-03-13T09:32:15.916Z,91.97
2023-03-13T09:33:16.075Z,91.66
2023-03-13T09:34:15.913Z,91.66
2023-03-13T09:35:15.856Z,92.07
2023-03-13T09:36:15.871Z,91.97
2023-03-13T09:37:15.837Z,91.42
2023-03-13T09:38:16.861Z,90.50
2023-03-13T09:39:16.405Z,91.31
2023-03-13T09:40:15.840Z,91.52
2023-03-13T09:41:16.093Z,91.62
2023-03-13T09:42:16.237Z,91.72
2023-03-13T09:43:16.395Z,91.46
2023-03-13T09:44:16.060Z,92.38
2023-03-13T09:45:15.748Z,92.58
2023-03-13T09:46:15.770Z,92.01
2023-03-13T09:47:15.758Z,92.52
2023-03-13T09:48:15.726Z,93.13
2023-03-13T09:49:18.138Z,93.03
2023-03-13T09:50:16.796Z,93.33
2023-03-13T09:51:15.785Z,92.93
2023-03-13T09:52:15.719Z,93.24
2023-03-13T09:53:15.666Z,93.54
2023-03-13T09:54:15.642Z,93.13
2023-03-13T09:55:15.641Z,93.48
2023-03-13T09:56:15.599Z,93.54
2023-03-13T09:57:15.667Z,93.69
2023-03-13T09:58:15.614Z,93.74
2023-03-13T09:59:15.623Z,93.89
2023-03-13T10:00:15.609Z,93.33
2023-03-13T10:01:15.564Z,93.24
2023-03-13T10:02:15.646Z,93.64
2023-03-13T10:03:15.535Z,93.13
2023-03-13T10:04:16.429Z,93.19
2023-03-13T10:05:15.564Z,93.09
2023-03-13T10:06:15.588Z,92.52
2023-03-13T10:07:15.568Z,93.09
2023-03-13T10:08:16.334Z,92.58
2023-03-13T10:09:15.506Z,92.58
2023-03-13T10:10:15.416Z,92.38
2023-03-13T10:11:15.947Z,92.27
2023-03-13T10:12:15.711Z,91.56
2023-03-13T10:13:15.428Z,91.77
2023-03-13T10:14:15.410Z,91.87
2023-03-13T10:15:15.418Z,91.77
2023-03-13T10:16:18.160Z,91.87
2023-03-13T10:17:15.385Z,91.77
2023-03-13T10:18:15.408Z,91.77
2023-03-13T10:19:15.395Z,91.72
2023-03-13T10:20:15.872Z,91.56
2023-03-13T10:21:15.364Z,91.77
2023-03-13T10:22:15.402Z,91.46
2023-03-13T10:23:15.347Z,91.26
2023-03-13T10:24:15.327Z,91.36
2023-03-13T10:25:15.309Z,91.56
2023-03-13T10:26:15.318Z,91.56
2023-03-13T10:27:15.269Z,91.56
2023-03-13T10:28:15.297Z,90.95
2023-03-13T10:29:15.273Z,91.87
2023-03-13T10:30:15.249Z,91.56
2023-03-13T10:31:15.264Z,91.77
2023-03-13T10:32:15.231Z,91.77
2023-03-13T10:33:15.249Z,91.83
2023-03-13T10:34:15.173Z,91.66
2023-03-13T10:35:15.186Z,91.87
2023-03-13T10:36:47.672Z,91.66
2023-03-13T10:37:15.167Z,91.62
2023-03-13T10:38:15.227Z,91.72
2023-03-13T10:39:15.124Z,91.52
2023-03-13T10:40:15.179Z,91.52
2023-03-13T10:41:15.198Z,91.07
2023-03-13T10:42:15.103Z,90.46
2023-03-13T10:43:15.155Z,90.16
2023-03-13T10:44:15.077Z,89.85
2023-03-13T10:45:16.971Z,90.05
2023-03-13T10:46:15.114Z,89.91
2023-03-13T10:47:15.073Z,90.25
2023-03-13T10:48:15.060Z,89.75
2023-03-13T10:49:15.047Z,90.16
2023-03-13T10:50:15.046Z,90.16
2023-03-13T10:51:15.041Z,90.46
2023-03-13T10:52:14.997Z,90.46
2023-03-13T10:53:15.058Z,90.56
2023-03-13T10:54:14.992Z,90.86
2023-03-13T10:55:14.968Z,90.36
2023-03-13T10:56:14.980Z,90.86
2023-03-13T10:57:14.929Z,90.77
2023-03-13T10:58:14.953Z,90.77
2023-03-13T10:59:15.388Z,91.17
2023-03-13T11:00:19.148Z,91.17
2023-03-13T11:01:15.594Z,91.22
2023-03-13T11:02:17.413Z,91.31
2023-03-13T11:03:15.790Z,91.58
2023-03-13T11:04:14.978Z,91.17
2023-03-13T11:05:14.834Z,90.83
2023-03-13T11:06:14.860Z,90.62
2023-03-13T11:07:14.816Z,90.22
2023-03-13T11:08:14.838Z,90.22
2023-03-13T11:09:15.849Z,90.31
2023-03-13T11:10:14.809Z,90.17
2023-03-13T11:11:14.827Z,89.66
2023-03-13T11:12:16.684Z,89.01
2023-03-13T11:13:15.936Z,87.61
2023-03-13T11:14:15.910Z,87.10
2023-03-13T11:15:15.658Z,86.55
2023-03-13T11:16:17.107Z,86.45
2023-03-13T11:17:14.720Z,86.86
2023-03-13T11:18:14.734Z,86.10
2023-03-13T11:19:14.750Z,86.25
2023-03-13T11:20:14.893Z,86.19
2023-03-13T11:21:18.298Z,87.30
2023-03-13T11:22:17.709Z,86.90
2023-03-13T11:23:16.384Z,86.94
2023-03-13T11:24:15.040Z,87.55
2023-03-13T11:25:17.751Z,87.45
2023-03-13T11:26:17.550Z,87.45
2023-03-13T11:27:15.761Z,87.45
2023-03-13T11:28:15.009Z,87.99
2023-03-13T11:29:15.387Z,88.10
2023-03-13T11:30:15.888Z,87.79
2023-03-13T11:31:16.238Z,87.45
2023-03-13T11:32:16.089Z,88.10
2023-03-13T11:33:15.327Z,88.10
2023-03-13T11:34:14.968Z,89.22
2023-03-13T11:35:17.261Z,88.71
2023-03-13T11:36:18.897Z,88.91
2023-03-13T11:37:17.839Z,88.95
2023-03-13T11:38:16.366Z,89.11
2023-03-13T11:39:16.393Z,88.30
2023-03-13T11:40:17.893Z,88.30
2023-03-13T11:41:17.673Z,87.69
2023-03-13T11:42:17.449Z,88.04
2023-03-13T11:43:25.057Z,87.99
2023-03-13T11:44:17.516Z,87.79
2023-03-13T11:45:15.160Z,87.59
2023-03-13T11:46:17.250Z,87.99
2023-03-13T11:47:17.029Z,87.79
2023-03-13T11:48:14.359Z,87.79
2023-03-13T11:49:14.408Z,88.13
2023-03-13T11:50:14.979Z,87.69
2023-03-13T11:51:14.605Z,87.59
2023-03-13T11:52:15.381Z,87.59
2023-03-13T11:53:14.395Z,87.49
2023-03-13T11:54:14.341Z,87.49
2023-03-13T11:55:14.318Z,88.10
2023-03-13T11:56:14.529Z,87.63
2023-03-13T11:57:15.733Z,88.30
2023-03-13T11:58:14.913Z,89.11
2023-03-13T11:59:15.945Z,88.40
2023-03-13T12:00:14.487Z,88.10
2023-03-13T12:01:16.968Z,89.11
2023-03-13T12:02:18.675Z,89.11
2023-03-13T12:03:14.789Z,88.30
2023-03-13T12:04:14.957Z,88.81
2023-03-13T12:05:17.809Z,88.50
2023-03-13T12:06:27.349Z,88.30
2023-03-13T12:07:16.246Z,88.44
2023-03-13T12:08:14.149Z,87.99
2023-03-13T12:09:14.156Z,87.99
2023-03-13T12:10:14.271Z,88.04
2023-03-13T12:11:14.068Z,87.79
2023-03-13T12:12:14.069Z,87.59
2023-03-13T12:13:14.129Z,87.89
2023-03-13T12:14:14.093Z,87.69
2023-03-13T12:15:14.084Z,87.69
2023-03-13T12:16:14.070Z,87.59
2023-03-13T12:17:14.119Z,87.49
2023-03-13T12:18:14.041Z,87.69
2023-03-13T12:19:14.034Z,87.99
2023-03-13T12:20:14.016Z,88.91
2023-03-13T12:21:14.038Z,89.01
2023-03-13T12:22:14.053Z,89.01
2023-03-13T12:23:14.022Z,89.01
2023-03-13T12:24:14.005Z,88.71
2023-03-13T12:25:14.015Z,89.11
2023-03-13T12:26:13.982Z,88.91
2023-03-13T12:27:13.980Z,89.01
2023-03-13T12:28:14.036Z,88.91
2023-03-13T12:29:13.925Z,88.91
2023-03-13T12:30:13.909Z,89.01
2023-03-13T12:31:13.951Z,88.71
2023-03-13T12:32:13.873Z,88.81
2023-03-13T12:33:13.887Z,88.91
2023-03-13T12:34:14.013Z,89.11
2023-03-13T12:35:13.853Z,89.01
2023-03-13T12:36:14.119Z,88.91
2023-03-13T12:37:16.569Z,89.22
2023-03-13T12:38:13.755Z,89.11
2023-03-13T12:39:18.305Z,89.01
2023-03-13T12:40:14.075Z,89.11
2023-03-13T12:41:15.167Z,89.01
2023-03-13T12:42:13.933Z,89.01
2023-03-13T12:43:15.630Z,89.22
2023-03-13T12:44:14.139Z,89.01
2023-03-13T12:45:15.444Z,89.01
2023-03-13T12:46:14.423Z,89.22
2023-03-13T12:47:13.889Z,89.52
2023-03-13T12:48:15.109Z,89.17
2023-03-13T12:49:16.596Z,89.07
2023-03-13T12:50:16.495Z,89.07
2023-03-13T12:51:16.281Z,89.31
2023-03-13T12:52:14.798Z,89.11